No.10 Hasshomaru — JD2992 — position and weather

sailwx.info

Track history (hours):
 
Tides and Currents Weather Stations Pressure Air Temp Water Temp Dewpoint Dewpoint Depression Visibility Wind Speed Wind Dir Waves Ship Positions

No.10 Hasshomaru

Last reported at 2015-Jul-31 00:33 UTC. Time now 2015-Jul-31 01:01 UTC.
Position N 36°01' E 140°43'.

Length 105 m; draft 5.2 m.

Type: Tanker. MMSI: 431001112.

Date/timePositionNaut miles runAvg speedWind from/ knotsBaromVisibWave heightAir tempDewpointWater temp
2015-Jul-31 00:33N 36°01' E 140°43'0 0.2
2015-Jul-30 23:24N 36°01' E 140°43'0 0.1
2015-Jul-30 22:30N 36°01' E 140°43'0 0.0
2015-Jul-30 21:18N 36°01' E 140°43'0 0.1
2015-Jul-30 20:30N 36°01' E 140°43'0 0.0
2015-Jul-30 19:24N 36°01' E 140°43'0 0.0
2015-Jul-30 18:30N 36°01' E 140°43'0 0.0
2015-Jul-30 17:30N 36°01' E 140°43'0 0.1
2015-Jul-30 16:33N 36°01' E 140°43'0 0.0
2015-Jul-30 15:24N 36°01' E 140°43'0 0.0
2015-Jul-30 14:30N 36°01' E 140°43'0 0.0
2015-Jul-30 13:30N 36°01' E 140°43'0 0.0
2015-Jul-30 12:33N 36°01' E 140°43'0 0.0
2015-Jul-30 11:30N 36°01' E 140°43'0 0.1
2015-Jul-30 10:30N 36°01' E 140°43'0 0.0
2015-Jul-30 09:21N 36°01' E 140°43'0 0.2
2015-Jul-30 08:33N 36°01' E 140°43'1614.1
2015-Jul-30 07:24N 36°17' E 140°49'1315.4
2015-Jul-30 06:33N 36°29' E 140°54'  
2015-Jul-25 17:33N 36°41' E 140°58'1713.4
2015-Jul-25 16:17N 36°25' E 140°52'1213.5
2015-Jul-25 15:24N 36°13' E 140°48'1213.7
2015-Jul-25 14:33N 36°02' E 140°44'8 1.0
2015-Jul-25 06:21N 35°55' E 140°41'5 5.6
2015-Jul-25 05:33N 35°59' E 140°43'4 0.8
2015-Jul-25 00:14N 36°03' E 140°44'913.3
2015-Jul-24 23:33N 36°12' E 140°47'1514.4
2015-Jul-24 22:30N 36°26' E 140°54'  
2015-Jul-22 11:25N 36°05' E 140°45'1111.9
2015-Jul-22 10:31N 35°55' E 140°41'0 0.0
2015-Jul-22 02:27N 35°55' E 140°41'6 1.2
2015-Jul-21 21:28N 36°01' E 140°44'0 0.0
2015-Jul-21 20:04N 36°01' E 140°44'1 1.4
2015-Jul-21 19:32N 36°01' E 140°44'  
Track history (hours):
 
Tides and Currents Weather Stations Pressure Air Temp Water Temp Dewpoint Dewpoint Depression Visibility Wind Speed Wind Dir Waves Ship Positions

No.10 Hasshomaru

Last reported at 2015-Jul-31 00:33 UTC. Time now 2015-Jul-31 01:01 UTC.
Position N 36°01' E 140°43'.

Length 105 m; draft 5.2 m.

Type: Tanker. MMSI: 431001112.

Date/timePositionNaut miles runAvg speedWind from/ knotsBaromVisibWave heightAir tempDewpointWater temp
2015-Jul-31 00:33N 36°01' E 140°43'0 0.2
2015-Jul-30 23:24N 36°01' E 140°43'0 0.1
2015-Jul-30 22:30N 36°01' E 140°43'0 0.0
2015-Jul-30 21:18N 36°01' E 140°43'0 0.1
2015-Jul-30 20:30N 36°01' E 140°43'0 0.0
2015-Jul-30 19:24N 36°01' E 140°43'0 0.0
2015-Jul-30 18:30N 36°01' E 140°43'0 0.0
2015-Jul-30 17:30N 36°01' E 140°43'0 0.1
2015-Jul-30 16:33N 36°01' E 140°43'0 0.0
2015-Jul-30 15:24N 36°01' E 140°43'0 0.0
2015-Jul-30 14:30N 36°01' E 140°43'0 0.0
2015-Jul-30 13:30N 36°01' E 140°43'0 0.0
2015-Jul-30 12:33N 36°01' E 140°43'0 0.0
2015-Jul-30 11:30N 36°01' E 140°43'0 0.1
2015-Jul-30 10:30N 36°01' E 140°43'0 0.0
2015-Jul-30 09:21N 36°01' E 140°43'0 0.2
2015-Jul-30 08:33N 36°01' E 140°43'1614.1
2015-Jul-30 07:24N 36°17' E 140°49'1315.4
2015-Jul-30 06:33N 36°29' E 140°54'  
2015-Jul-25 17:33N 36°41' E 140°58'1713.4
2015-Jul-25 16:17N 36°25' E 140°52'1213.5
2015-Jul-25 15:24N 36°13' E 140°48'1213.7
2015-Jul-25 14:33N 36°02' E 140°44'8 1.0
2015-Jul-25 06:21N 35°55' E 140°41'5 5.6
2015-Jul-25 05:33N 35°59' E 140°43'4 0.8
2015-Jul-25 00:14N 36°03' E 140°44'913.3
2015-Jul-24 23:33N 36°12' E 140°47'1514.4
2015-Jul-24 22:30N 36°26' E 140°54'  
2015-Jul-22 11:25N 36°05' E 140°45'1111.9
2015-Jul-22 10:31N 35°55' E 140°41'0 0.0
2015-Jul-22 02:27N 35°55' E 140°41'6 1.2
2015-Jul-21 21:28N 36°01' E 140°44'0 0.0
2015-Jul-21 20:04N 36°01' E 140°44'1 1.4
2015-Jul-21 19:32N 36°01' E 140°44'  

Dump ship's entire track history